Time;durP1;ratioP1;P1;durP2;ratioP2;P2;SDS_P1;SDS_P2;PMS_P1;PMS_P2;Temp;Humidity;BMP_temperature;BMP_pressure;BME280_temperature;BME280_humidity;BME280_pressure;Samples;Min_cycle;Max_cycle;Signal;HPM_P1;HPM_P2
2021/03/18 00:01:11;;;;;;;13.70;3.40;;;3.80;99.90;;;;;;4906223;29;20039;-91
2021/03/18 00:03:38;;;;;;;23.23;3.70;;;3.80;99.90;;;;;;4938739;29;20537;-92
2021/03/18 00:06:05;;;;;;;15.77;3.20;;;3.80;99.90;;;;;;4939279;29;20079;-91
2021/03/18 00:08:32;;;;;;;18.75;3.08;;;3.80;99.90;;;;;;4938400;29;20148;-91
2021/03/18 00:10:59;;;;;;;14.65;3.00;;;3.80;99.90;;;;;;4936387;29;20477;-92
2021/03/18 00:13:28;;;;;;;16.55;2.90;;;3.70;99.90;;;;;;4921137;29;20082;-92
2021/03/18 00:15:56;;;;;;;16.60;3.72;;;3.70;99.90;;;;;;4920349;29;20143;-92
2021/03/18 00:18:28;;;;;;;21.63;3.75;;;3.70;99.90;;;;;;4936853;29;20086;-92
2021/03/18 00:20:53;;;;;;;13.32;3.17;;;3.60;99.90;;;;;;4936703;29;20061;-91
2021/03/18 00:23:19;;;;;;;17.25;3.15;;;3.60;99.90;;;;;;4936857;29;20501;-92
2021/03/18 00:25:45;;;;;;;28.35;4.88;;;3.60;99.90;;;;;;4936841;29;20496;-91
2021/03/18 00:28:11;;;;;;;19.98;4.15;;;3.50;99.90;;;;;;4937933;29;20032;-91
2021/03/18 00:30:36;;;;;;;16.58;3.35;;;3.50;99.90;;;;;;4937968;29;20035;-92
2021/03/18 00:33:04;;;;;;;18.13;4.00;;;3.40;99.90;;;;;;4937846;29;20020;-92
2021/03/18 00:35:29;;;;;;;22.90;3.90;;;3.40;99.90;;;;;;4937817;29;20047;-92
2021/03/18 00:37:56;;;;;;;21.45;3.70;;;3.40;99.90;;;;;;4938089;29;20031;-91
2021/03/18 00:40:29;;;;;;;15.70;3.38;;;3.40;99.90;;;;;;4937956;29;20028;-92
2021/03/18 00:43:06;;;;;;;21.98;3.90;;;3.40;99.90;;;;;;4920737;29;20114;-91
2021/03/18 00:45:34;;;;;;;21.35;3.53;;;3.30;99.90;;;;;;4937782;29;20027;-92
2021/03/18 00:48:00;;;;;;;15.88;3.20;;;3.30;99.90;;;;;;4937571;29;20039;-91
2021/03/18 00:50:42;;;;;;;19.20;3.83;;;3.30;99.90;;;;;;4920856;29;20036;-92
2021/03/18 00:53:09;;;;;;;17.77;2.88;;;3.30;99.90;;;;;;4937601;29;20119;-91
2021/03/18 00:55:36;;;;;;;13.35;3.00;;;3.30;99.90;;;;;;4937376;29;20075;-91
2021/03/18 00:58:02;;;;;;;17.58;3.20;;;3.30;99.90;;;;;;4937068;29;20059;-92
2021/03/18 01:00:42;;;;;;;24.45;3.25;;;3.30;99.90;;;;;;4936035;29;20023;-92
2021/03/18 01:03:09;;;;;;;21.50;4.20;;;3.30;99.90;;;;;;4915619;29;20027;-92
2021/03/18 01:06:01;;;;;;;26.70;3.80;;;3.30;99.90;;;;;;4935477;29;20039;-92
2021/03/18 01:08:28;;;;;;;19.17;5.35;;;3.30;99.90;;;;;;4926330;29;20036;-91
2021/03/18 01:11:01;;;;;;;23.30;4.05;;;3.20;99.90;;;;;;4936501;29;20036;-91
2021/03/18 01:13:27;;;;;;;21.52;3.67;;;3.20;99.90;;;;;;4919870;29;20074;-92
2021/03/18 01:16:05;;;;;;;29.73;6.00;;;3.20;99.90;;;;;;4936939;29;20044;-91
2021/03/18 01:18:53;;;;;;;19.83;3.95;;;3.10;99.90;;;;;;4936770;29;20127;-92
2021/03/18 01:21:22;;;;;;;14.07;3.00;;;3.10;99.90;;;;;;4920475;29;20030;-92
2021/03/18 01:23:48;;;;;;;38.85;4.10;;;3.10;99.90;;;;;;4929000;29;20024;-91
2021/03/18 01:26:14;;;;;;;20.38;3.50;;;3.10;99.90;;;;;;4936108;29;20020;-92
2021/03/18 01:28:40;;;;;;;16.70;3.60;;;3.10;99.90;;;;;;4960048;29;20038;-92
2021/03/18 01:31:08;;;;;;;12.55;2.92;;;3.00;99.90;;;;;;4932626;29;20036;-91
2021/03/18 01:33:33;;;;;;;17.63;3.38;;;3.00;99.90;;;;;;4942015;29;20028;-92
2021/03/18 01:36:00;;;;;;;14.10;2.90;;;3.00;99.90;;;;;;4940607;29;20051;-93
2021/03/18 01:38:30;;;;;;;15.32;2.95;;;3.00;99.90;;;;;;4922594;29;20055;-92
2021/03/18 01:40:57;;;;;;;28.02;4.22;;;3.00;99.90;;;;;;4938677;29;20042;-91
2021/03/18 01:43:24;;;;;;;20.58;3.08;;;3.00;99.90;;;;;;4938430;29;20038;-91
2021/03/18 01:45:50;;;;;;;18.58;4.22;;;2.90;99.90;;;;;;4921544;29;20063;-93
2021/03/18 01:48:16;;;;;;;23.77;4.28;;;2.90;99.90;;;;;;4940065;29;20028;-91
2021/03/18 01:50:42;;;;;;;16.38;2.88;;;2.90;99.90;;;;;;4926104;29;20104;-92
2021/03/18 01:53:08;;;;;;;14.98;2.80;;;2.90;99.90;;;;;;4941875;29;20111;-91
2021/03/18 01:55:38;;;;;;;19.02;3.33;;;2.90;99.90;;;;;;4944127;29;20164;-92
2021/03/18 01:58:07;;;;;;;13.80;3.08;;;2.90;99.90;;;;;;4943170;29;20031;-92
2021/03/18 02:00:35;;;;;;;19.83;3.88;;;2.90;99.90;;;;;;4941730;29;20042;-92
2021/03/18 02:03:02;;;;;;;20.98;3.38;;;2.90;99.90;;;;;;4940433;29;20106;-91
2021/03/18 02:05:30;;;;;;;22.00;3.40;;;2.90;99.90;;;;;;4938567;29;20024;-92
2021/03/18 02:07:57;;;;;;;20.02;4.13;;;2.90;99.90;;;;;;4937550;29;20027;-91
2021/03/18 02:10:26;;;;;;;15.60;3.80;;;2.90;99.90;;;;;;4938244;29;20533;-91
2021/03/18 02:12:52;;;;;;;19.25;3.78;;;2.80;99.90;;;;;;4938110;29;20032;-91
2021/03/18 02:15:21;;;;;;;14.82;3.65;;;2.80;99.90;;;;;;4938311;29;20120;-92
2021/03/18 02:18:04;;;;;;;20.80;3.03;;;2.80;99.90;;;;;;4938556;29;20030;-91
2021/03/18 02:20:38;;;;;;;28.38;3.72;;;2.80;99.90;;;;;;4938074;29;20091;-91
2021/03/18 02:23:29;;;;;;;16.88;2.97;;;2.80;99.90;;;;;;4938331;29;20027;-92
2021/03/18 02:26:18;;;;;;;23.05;3.78;;;2.80;99.90;;;;;;4938288;29;20039;-90
2021/03/18 02:29:23;;;;;;;14.90;3.63;;;2.80;99.90;;;;;;4920996;29;20091;-91
2021/03/18 02:32:33;;;;;;;20.30;5.63;;;2.80;99.90;;;;;;4937016;29;20091;-91
2021/03/18 02:35:25;;;;;;;15.30;2.90;;;2.80;99.90;;;;;;4921540;29;20489;-91
2021/03/18 02:38:02;;;;;;;26.48;3.75;;;2.70;99.90;;;;;;4940299;29;20036;-92
2021/03/18 02:40:32;;;;;;;19.05;3.95;;;2.70;99.90;;;;;;4923193;29;20031;-92
2021/03/18 02:43:03;;;;;;;21.38;4.93;;;2.70;99.90;;;;;;4938812;29;20130;-91
2021/03/18 02:45:33;;;;;;;18.73;3.78;;;2.70;99.90;;;;;;4939712;29;20034;-91
2021/03/18 02:48:01;;;;;;;19.75;3.40;;;2.70;99.90;;;;;;4939461;29;20094;-91
2021/03/18 02:50:30;;;;;;;24.08;3.22;;;2.70;99.90;;;;;;4922947;29;20032;-91
2021/03/18 02:52:58;;;;;;;18.45;3.83;;;2.70;99.90;;;;;;4939386;29;20105;-92
2021/03/18 02:55:24;;;;;;;26.77;5.15;;;2.60;99.90;;;;;;4939004;29;20056;-90
2021/03/18 02:57:52;;;;;;;27.00;3.63;;;2.60;99.90;;;;;;4939371;29;20411;-92
2021/03/18 03:00:19;;;;;;;14.63;2.78;;;2.60;99.90;;;;;;4922305;29;20549;-92
2021/03/18 03:02:46;;;;;;;18.52;4.88;;;2.60;99.90;;;;;;4938536;29;20386;-91
2021/03/18 03:05:14;;;;;;;25.50;4.32;;;2.50;99.90;;;;;;4939020;29;20031;-92
2021/03/18 03:07:43;;;;;;;19.63;3.63;;;2.40;99.90;;;;;;4938796;29;20027;-91
2021/03/18 03:10:10;;;;;;;13.18;4.00;;;2.30;99.90;;;;;;4939104;29;20035;-92
2021/03/18 03:12:36;;;;;;;16.92;3.78;;;2.30;99.90;;;;;;4938817;29;20490;-92
2021/03/18 03:15:05;;;;;;;23.52;4.57;;;2.30;99.90;;;;;;4937559;29;20044;-91
2021/03/18 03:17:31;;;;;;;18.77;3.60;;;2.30;99.90;;;;;;4938798;29;20032;-92
2021/03/18 03:19:59;;;;;;;16.20;3.55;;;2.30;99.90;;;;;;4938846;29;20032;-91
2021/03/18 03:22:26;;;;;;;27.00;4.18;;;2.30;99.90;;;;;;4938464;29;20111;-92
2021/03/18 03:24:55;;;;;;;25.23;4.43;;;2.30;99.90;;;;;;4921888;29;20059;-92
2021/03/18 03:27:22;;;;;;;19.77;3.15;;;2.30;99.90;;;;;;4938800;29;20486;-93
2021/03/18 10:56:39;;;;;;;24.98;5.97;;;10.60;99.90;;;;;;4906060;29;20075;-92
2021/03/18 10:59:16;;;;;;;26.90;5.18;;;10.60;99.90;;;;;;4918064;29;20044;-93
2021/03/18 11:01:42;;;;;;;24.33;5.15;;;10.70;99.90;;;;;;4909165;29;20020;-95
2021/03/18 11:04:08;;;;;;;25.95;5.88;;;10.70;99.90;;;;;;4917715;29;20016;-94
2021/03/18 11:06:44;;;;;;;23.02;5.45;;;10.80;99.90;;;;;;4907914;29;20031;-92
2021/03/18 11:09:11;;;;;;;23.58;5.32;;;10.90;99.90;;;;;;4909511;29;20024;-92
2021/03/18 11:11:37;;;;;;;23.92;5.68;;;10.90;99.90;;;;;;4919300;29;20477;-92
2021/03/18 11:14:12;;;;;;;29.13;6.00;;;11.00;99.90;;;;;;4916929;29;20027;-93
2021/03/18 11:16:38;;;;;;;23.63;6.13;;;11.20;99.90;;;;;;4926197;29;20047;-93
2021/03/18 11:19:06;;;;;;;21.00;6.40;;;11.30;99.90;;;;;;4923279;29;20028;-93
2021/03/18 11:21:41;;;;;;;24.95;6.72;;;11.50;99.90;;;;;;4923423;29;20028;-92
2021/03/18 11:24:09;;;;;;;23.13;8.05;;;11.50;99.90;;;;;;4922240;29;20039;-93
2021/03/18 11:26:37;;;;;;;21.15;7.68;;;11.50;99.70;;;;;;4910607;29;20024;-91
2021/03/18 11:29:13;;;;;;;20.60;6.97;;;11.50;99.50;;;;;;4917809;29;20036;-92
2021/03/18 11:31:41;;;;;;;23.70;6.70;;;11.50;99.50;;;;;;4919184;29;20111;-94
2021/03/18 11:34:17;;;;;;;20.40;6.25;;;11.50;99.20;;;;;;4910847;29;20028;-93
2021/03/18 11:36:47;;;;;;;21.38;6.63;;;11.50;99.20;;;;;;4917124;29;20036;-93
2021/03/18 11:39:13;;;;;;;19.73;5.45;;;11.50;99.40;;;;;;4917389;29;20016;-92
2021/03/18 11:41:39;;;;;;;21.27;6.97;;;11.50;99.60;;;;;;4909083;29;20493;-94
2021/03/18 11:44:05;;;;;;;20.58;7.57;;;11.60;99.50;;;;;;4917966;29;20032;-93
2021/03/18 11:46:31;;;;;;;18.70;6.50;;;11.60;99.30;;;;;;4918015;29;20477;-92
2021/03/18 11:48:57;;;;;;;18.25;7.43;;;11.70;99.30;;;;;;4918293;29;20381;-93
2021/03/18 11:51:24;;;;;;;17.70;6.88;;;11.90;99.20;;;;;;4917785;29;20024;-91
2021/03/18 11:53:53;;;;;;;19.55;7.35;;;12.10;99.20;;;;;;4917308;29;20025;-89
2021/03/18 11:56:20;;;;;;;20.02;7.47;;;12.30;98.60;;;;;;4898084;29;20096;-91
2021/03/18 11:58:46;;;;;;;20.67;7.90;;;12.50;97.60;;;;;;4897765;29;20502;-90
2021/03/18 12:01:12;;;;;;;23.30;7.63;;;12.60;97.20;;;;;;4897902;29;20048;-90
2021/03/18 12:03:37;;;;;;;23.92;8.13;;;12.70;96.80;;;;;;4898684;29;20035;-94
2021/03/18 12:06:03;;;;;;;20.75;8.23;;;12.90;96.50;;;;;;4881601;29;20040;-91
2021/03/18 12:08:29;;;;;;;18.27;6.78;;;13.20;96.00;;;;;;4898306;29;20498;-91
2021/03/18 12:10:56;;;;;;;25.10;8.55;;;13.50;95.30;;;;;;4898400;29;20025;-91
2021/03/18 12:13:22;;;;;;;23.83;8.77;;;13.70;94.30;;;;;;4881616;29;20017;-90
2021/03/18 12:15:48;;;;;;;21.27;6.95;;;14.00;94.00;;;;;;4897033;29;20433;-90
2021/03/18 12:18:14;;;;;;;20.88;8.95;;;14.20;92.90;;;;;;4898045;29;20028;-92
2021/03/18 12:20:40;;;;;;;22.30;9.57;;;14.40;91.70;;;;;;4900322;29;20036;-90
2021/03/18 12:23:05;;;;;;;23.85;8.60;;;14.60;91.90;;;;;;4899239;29;20028;-90
2021/03/18 12:25:31;;;;;;;24.33;9.10;;;14.70;90.70;;;;;;4879638;29;20024;-91
2021/03/18 12:27:57;;;;;;;19.98;6.90;;;15.00;90.70;;;;;;4881108;29;20036;-90
2021/03/18 12:30:24;;;;;;;21.08;7.55;;;15.40;90.30;;;;;;4897084;29;20084;-92
2021/03/18 12:32:53;;;;;;;18.48;8.40;;;15.80;87.90;;;;;;4880862;29;20454;-91
2021/03/18 12:35:21;;;;;;;22.08;9.00;;;15.90;84.60;;;;;;4889195;29;20099;-92
2021/03/18 12:37:50;;;;;;;21.40;9.75;;;16.00;84.70;;;;;;4888999;29;20036;-90
2021/03/18 12:40:16;;;;;;;21.88;8.80;;;16.00;83.60;;;;;;4896766;29;20271;-91
2021/03/18 12:42:42;;;;;;;21.88;8.65;;;16.00;83.70;;;;;;4897195;29;20164;-93
2021/03/18 12:45:12;;;;;;;22.45;9.13;;;16.00;82.90;;;;;;4880460;29;20115;-90
2021/03/18 12:47:39;;;;;;;26.33;8.68;;;16.10;83.20;;;;;;4881076;29;20658;-92
2021/03/18 12:50:07;;;;;;;22.67;8.90;;;16.30;82.50;;;;;;4897151;29;20025;-90
2021/03/18 12:52:32;;;;;;;18.27;7.85;;;16.60;81.60;;;;;;4879514;29;20131;-92
2021/03/18 12:54:58;;;;;;;20.05;8.73;;;16.90;80.80;;;;;;4905130;29;20192;-92
2021/03/18 12:57:24;;;;;;;22.42;7.78;;;16.90;79.20;;;;;;4917203;29;20035;-90
2021/03/18 12:59:49;;;;;;;19.77;7.20;;;16.90;78.50;;;;;;4912807;29;20016;-91
2021/03/18 13:02:15;;;;;;;16.58;7.10;;;16.90;77.90;;;;;;4921144;29;20024;-91
2021/03/18 13:04:41;;;;;;;16.85;7.63;;;16.90;77.90;;;;;;4911451;29;20035;-92
2021/03/18 13:07:07;;;;;;;21.42;7.45;;;16.90;78.00;;;;;;4910104;29;20035;-90
2021/03/18 13:09:32;;;;;;;19.17;7.22;;;16.90;78.10;;;;;;4927738;29;20438;-90
2021/03/18 13:11:58;;;;;;;17.25;7.00;;;17.00;77.90;;;;;;4918823;29;20051;-92
2021/03/18 13:14:24;;;;;;;16.10;6.65;;;17.20;77.80;;;;;;4914975;29;20032;-91
2021/03/18 13:16:49;;;;;;;16.50;7.13;;;17.30;77.20;;;;;;4920261;29;20122;-91
2021/03/18 13:19:15;;;;;;;18.00;6.60;;;17.40;77.10;;;;;;4917918;29;20020;-91
2021/03/18 13:21:42;;;;;;;15.35;7.35;;;17.80;76.90;;;;;;4918226;29;20043;-91
2021/03/18 13:24:08;;;;;;;15.70;6.25;;;18.00;75.40;;;;;;4918076;29;20032;-92
2021/03/18 13:26:34;;;;;;;15.40;6.30;;;18.10;75.00;;;;;;4917364;29;20056;-90
2021/03/18 13:29:01;;;;;;;11.95;5.93;;;18.20;74.10;;;;;;4917642;29;20024;-91
2021/03/18 13:31:26;;;;;;;13.40;6.68;;;18.20;74.20;;;;;;4917352;29;20107;-93
2021/03/18 13:33:53;;;;;;;25.45;8.20;;;18.20;73.80;;;;;;4916814;29;20024;-90
2021/03/18 13:36:19;;;;;;;21.45;8.32;;;18.30;73.20;;;;;;4899632;29;20051;-91
2021/03/18 13:38:45;;;;;;;20.83;7.78;;;18.50;73.20;;;;;;4899415;29;20393;-90
2021/03/18 13:41:10;;;;;;;17.55;6.20;;;18.50;72.90;;;;;;4899561;29;20032;-90
2021/03/18 13:43:37;;;;;;;19.95;6.85;;;18.40;72.90;;;;;;4900085;29;20446;-91
2021/03/18 13:46:05;;;;;;;15.43;6.10;;;18.30;72.90;;;;;;4916379;29;20030;-92
2021/03/18 13:48:31;;;;;;;18.20;7.10;;;18.10;73.00;;;;;;4915863;29;20130;-91
2021/03/18 13:50:59;;;;;;;15.93;5.90;;;18.10;73.40;;;;;;4914079;29;20111;-92
2021/03/18 13:53:25;;;;;;;15.80;6.30;;;18.00;73.50;;;;;;4898734;29;20461;-91
2021/03/18 13:55:53;;;;;;;14.80;7.20;;;17.90;73.90;;;;;;4899600;29;20100;-94
2021/03/18 13:58:19;;;;;;;15.40;5.75;;;17.60;74.10;;;;;;4915446;29;20032;-92
2021/03/18 14:00:45;;;;;;;14.77;5.90;;;17.30;74.50;;;;;;4898141;29;20836;-91
2021/03/18 14:03:11;;;;;;;15.73;6.85;;;16.90;75.10;;;;;;4916010;29;20474;-91
2021/03/18 14:05:37;;;;;;;18.83;6.60;;;16.50;76.80;;;;;;4919333;29;20036;-91
2021/03/18 14:08:05;;;;;;;17.65;6.13;;;16.10;77.10;;;;;;4924126;29;20044;-91
2021/03/18 14:10:32;;;;;;;15.85;5.60;;;15.90;78.10;;;;;;4906666;29;20024;-90
2021/03/18 14:12:58;;;;;;;15.57;6.15;;;15.70;79.10;;;;;;4910993;29;20028;-92
2021/03/18 14:15:24;;;;;;;21.25;6.43;;;15.50;79.80;;;;;;4916605;29;20063;-89
2021/03/18 14:17:50;;;;;;;17.95;7.20;;;15.30;80.60;;;;;;4899410;29;20061;-91
2021/03/18 14:20:23;;;;;;;17.42;6.28;;;15.20;81.40;;;;;;4899445;29;20034;-91
2021/03/18 14:22:49;;;;;;;16.98;6.47;;;15.20;82.20;;;;;;4898620;29;20466;-91
2021/03/18 14:25:17;;;;;;;16.27;5.78;;;15.10;82.60;;;;;;4898852;29;20056;-92
2021/03/18 14:27:45;;;;;;;14.88;6.00;;;15.10;83.20;;;;;;4899044;29;20117;-92
2021/03/18 14:30:11;;;;;;;14.93;6.88;;;15.00;83.50;;;;;;4915494;29;20028;-91
2021/03/18 14:32:38;;;;;;;15.82;5.80;;;15.00;84.10;;;;;;4918937;29;20043;-94
2021/03/18 14:35:07;;;;;;;18.25;6.43;;;15.00;84.60;;;;;;4918695;29;20509;-92
2021/03/18 14:37:33;;;;;;;18.80;6.35;;;15.00;85.00;;;;;;4917780;29;20028;-93
2021/03/18 14:39:59;;;;;;;13.30;5.15;;;15.20;85.40;;;;;;4918082;29;20028;-92
2021/03/18 14:42:25;;;;;;;18.85;6.28;;;15.60;85.60;;;;;;4902721;29;20035;-92
2021/03/18 14:44:52;;;;;;;14.07;5.63;;;16.00;84.50;;;;;;4919032;29;20024;-94
2021/03/18 14:47:18;;;;;;;17.13;5.57;;;16.20;83.30;;;;;;4901838;29;20554;-91
2021/03/18 14:49:43;;;;;;;18.90;6.45;;;16.40;82.60;;;;;;4902124;29;20028;-94
2021/03/18 14:52:09;;;;;;;17.10;5.93;;;16.40;82.00;;;;;;4902118;29;20036;-92
2021/03/18 14:54:35;;;;;;;15.07;5.95;;;16.40;81.60;;;;;;4918492;29;20051;-92
2021/03/18 14:57:03;;;;;;;19.20;6.78;;;16.30;81.60;;;;;;4918981;29;20028;-92
2021/03/18 14:59:29;;;;;;;11.27;5.57;;;16.20;81.80;;;;;;4918179;29;20481;-93
2021/03/18 15:01:56;;;;;;;16.52;6.03;;;16.00;82.20;;;;;;4917857;29;20088;-93
2021/03/18 15:04:21;;;;;;;17.83;6.75;;;15.80;83.00;;;;;;4916792;29;20112;-93
2021/03/18 15:06:47;;;;;;;16.73;6.10;;;15.70;83.60;;;;;;4918892;29;20052;-93
2021/03/18 15:09:14;;;;;;;13.80;6.40;;;15.50;84.10;;;;;;4901241;29;20126;-91
2021/03/18 15:11:40;;;;;;;18.85;5.88;;;15.50;84.70;;;;;;4915000;29;20470;-91
2021/03/18 15:14:06;;;;;;;18.65;6.80;;;15.40;85.40;;;;;;4916408;29;20063;-92
2021/03/18 15:16:31;;;;;;;18.83;6.50;;;15.20;85.80;;;;;;4916656;29;20043;-91
2021/03/18 15:18:57;;;;;;;13.60;6.45;;;15.10;86.30;;;;;;4918150;29;20039;-92
2021/03/18 15:21:23;;;;;;;19.60;5.88;;;14.90;86.80;;;;;;4900585;29;20035;-91
2021/03/18 15:23:50;;;;;;;17.10;5.63;;;14.80;87.70;;;;;;4916633;29;20031;-90
2021/03/18 15:26:17;;;;;;;17.15;6.13;;;14.70;88.30;;;;;;4917167;29;20673;-91
2021/03/18 15:28:42;;;;;;;17.17;6.72;;;14.50;88.90;;;;;;4916001;29;20033;-92
2021/03/18 15:31:14;;;;;;;14.70;5.57;;;14.40;89.60;;;;;;4901076;29;20070;-91
2021/03/18 15:33:39;;;;;;;19.30;6.25;;;14.30;90.10;;;;;;4917240;29;20433;-91
2021/03/18 15:36:06;;;;;;;17.80;6.65;;;14.20;90.30;;;;;;4901068;29;20036;-90
2021/03/18 15:38:31;;;;;;;16.23;7.20;;;14.20;90.60;;;;;;4900985;29;20028;-91
2021/03/18 15:40:57;;;;;;;18.13;6.40;;;14.10;90.80;;;;;;4917145;29;20238;-91
2021/03/18 15:43:23;;;;;;;16.98;6.05;;;14.00;91.20;;;;;;4902120;29;20071;-93
2021/03/18 15:45:48;;;;;;;18.35;6.72;;;14.00;91.50;;;;;;4919397;29;20034;-91
2021/03/18 15:48:15;;;;;;;17.67;6.80;;;13.90;91.70;;;;;;4919687;29;20025;-93
2021/03/18 15:50:44;;;;;;;14.23;6.50;;;13.80;92.00;;;;;;4902754;29;20032;-92
2021/03/18 15:53:10;;;;;;;18.50;6.18;;;13.80;92.20;;;;;;4917068;29;20119;-92
2021/03/18 15:55:39;;;;;;;15.90;6.10;;;13.80;92.40;;;;;;4911833;29;20056;-92
2021/03/18 15:58:06;;;;;;;18.23;6.63;;;13.80;92.50;;;;;;4918904;29;20036;-91
2021/03/18 16:00:32;;;;;;;18.60;5.75;;;13.90;92.70;;;;;;4918412;29;20035;-93
2021/03/18 16:02:58;;;;;;;14.75;5.80;;;13.80;92.80;;;;;;4917903;29;20064;-92
2021/03/18 16:05:25;;;;;;;19.20;5.70;;;13.80;93.00;;;;;;4899841;29;20064;-91
2021/03/18 16:07:54;;;;;;;15.57;5.50;;;13.70;93.10;;;;;;4916297;29;20075;-93
2021/03/18 16:10:21;;;;;;;12.32;4.93;;;13.70;93.30;;;;;;4905244;29;20057;-93
2021/03/18 16:12:46;;;;;;;16.50;5.35;;;13.60;93.50;;;;;;4902183;29;20499;-92
2021/03/18 16:15:13;;;;;;;13.35;4.93;;;13.50;93.70;;;;;;4909297;29;20127;-91
2021/03/18 16:17:38;;;;;;;17.00;6.95;;;13.50;93.90;;;;;;4907980;29;20034;-91
2021/03/18 16:20:07;;;;;;;13.95;5.20;;;13.30;94.20;;;;;;4928650;29;20962;-90
2021/03/18 16:22:32;;;;;;;7.30;4.40;;;13.30;94.50;;;;;;4916556;29;20024;-90
2021/03/18 16:24:58;;;;;;;9.63;4.60;;;13.20;94.70;;;;;;4924754;29;20039;-92
2021/03/18 16:27:24;;;;;;;13.20;4.60;;;13.20;95.00;;;;;;4933574;29;20032;-92
2021/03/18 16:29:52;;;;;;;13.88;5.68;;;13.10;95.20;;;;;;4909319;29;20035;-91
2021/03/18 16:32:17;;;;;;;11.68;5.10;;;13.00;95.50;;;;;;4908872;29;20060;-91
2021/03/18 16:34:43;;;;;;;12.85;5.13;;;13.00;95.80;;;;;;4916368;29;20024;-91
2021/03/18 16:37:09;;;;;;;12.88;5.47;;;12.90;96.00;;;;;;4917385;29;20115;-91
2021/03/18 16:39:36;;;;;;;9.90;4.60;;;12.80;96.30;;;;;;4906083;29;20110;-92
2021/03/18 16:42:04;;;;;;;12.85;4.72;;;12.70;96.60;;;;;;4916239;29;20032;-90
2021/03/18 16:44:30;;;;;;;16.85;5.30;;;12.70;97.00;;;;;;4916733;29;20059;-92
2021/03/18 16:46:56;;;;;;;10.52;5.60;;;12.60;97.30;;;;;;4908579;29;20046;-93
2021/03/18 16:49:22;;;;;;;12.60;4.85;;;12.50;97.60;;;;;;4920922;29;20024;-91
2021/03/18 16:51:49;;;;;;;10.18;5.00;;;12.40;97.90;;;;;;4908132;29;20037;-93
2021/03/18 16:54:15;;;;;;;14.45;5.63;;;12.40;98.30;;;;;;4913161;29;20056;-91
2021/03/18 16:56:41;;;;;;;13.35;4.80;;;12.30;98.90;;;;;;4920400;29;20119;-90
2021/03/18 16:59:07;;;;;;;14.88;4.95;;;12.10;99.20;;;;;;4902324;29;20047;-92
2021/03/18 17:01:34;;;;;;;13.90;5.70;;;12.00;99.80;;;;;;4918021;29;20034;-91
2021/03/18 17:04:00;;;;;;;11.32;5.57;;;12.00;99.90;;;;;;4900983;29;20021;-92
2021/03/18 17:06:26;;;;;;;14.98;5.88;;;11.90;99.90;;;;;;4900383;29;20078;-94
2021/03/18 17:08:52;;;;;;;14.05;5.43;;;11.80;99.90;;;;;;4900510;29;20142;-93
2021/03/18 17:11:18;;;;;;;12.98;5.05;;;11.80;99.90;;;;;;4917199;29;20032;-93
2021/03/18 17:13:44;;;;;;;17.25;5.18;;;11.80;99.90;;;;;;4916873;29;20032;-92
2021/03/18 17:16:09;;;;;;;14.43;5.20;;;11.80;99.90;;;;;;4900728;29;20040;-92
2021/03/18 17:18:35;;;;;;;13.07;5.38;;;11.70;99.90;;;;;;4918388;29;20545;-93
2021/03/18 17:21:01;;;;;;;14.35;4.78;;;11.70;99.90;;;;;;4900615;29;20103;-92
2021/03/18 17:23:36;;;;;;;11.70;5.25;;;11.70;99.90;;;;;;4900873;29;20036;-93
2021/03/18 17:26:03;;;;;;;13.15;5.25;;;11.60;99.90;;;;;;4900454;29;20385;-92
2021/03/18 17:28:29;;;;;;;11.45;5.18;;;11.60;99.90;;;;;;4915680;29;20024;-91
2021/03/18 17:30:57;;;;;;;11.52;4.72;;;11.60;99.90;;;;;;4916530;29;20038;-92
2021/03/18 17:33:26;;;;;;;13.18;5.38;;;11.50;99.90;;;;;;4915688;29;20024;-93
2021/03/18 17:35:52;;;;;;;14.15;5.30;;;11.50;99.90;;;;;;4918074;29;20095;-94
2021/03/18 17:38:19;;;;;;;18.05;5.50;;;11.40;99.90;;;;;;4899401;29;20080;-92
2021/03/18 17:40:45;;;;;;;12.23;5.10;;;11.40;99.90;;;;;;4916066;29;20051;-93
2021/03/18 17:43:11;;;;;;;13.32;5.25;;;11.30;99.90;;;;;;4895728;29;20099;-92
2021/03/18 17:45:43;;;;;;;11.90;4.82;;;11.30;99.90;;;;;;4897808;29;20059;-92
2021/03/18 17:48:10;;;;;;;10.88;5.47;;;11.30;99.90;;;;;;4915643;29;20059;-93
2021/03/18 17:50:39;;;;;;;14.00;5.05;;;11.20;99.90;;;;;;4916081;29;20048;-93
2021/03/18 17:53:06;;;;;;;14.85;5.88;;;11.20;99.90;;;;;;4900042;29;20027;-91
2021/03/18 17:55:39;;;;;;;23.65;5.57;;;11.20;99.90;;;;;;4917933;29;20514;-94
2021/03/18 17:58:04;;;;;;;16.65;5.85;;;11.10;99.90;;;;;;4900832;29;20020;-93
2021/03/18 18:00:30;;;;;;;16.55;5.10;;;11.10;99.90;;;;;;4900613;29;20056;-92
2021/03/18 18:02:56;;;;;;;15.32;6.07;;;11.10;99.90;;;;;;4900956;29;20045;-92
2021/03/18 18:05:31;;;;;;;10.88;5.13;;;11.00;99.90;;;;;;4902171;29;20497;-93
2021/03/18 18:08:00;;;;;;;13.98;5.63;;;11.00;99.90;;;;;;4917856;29;20040;-93
2021/03/18 18:10:30;;;;;;;16.65;5.07;;;10.90;99.90;;;;;;4917319;29;20027;-91
2021/03/18 18:13:00;;;;;;;13.73;5.50;;;10.90;99.90;;;;;;4903201;29;20091;-92
2021/03/18 18:15:27;;;;;;;18.65;6.53;;;10.90;99.90;;;;;;4917337;29;20040;-93
2021/03/18 18:17:52;;;;;;;13.95;5.53;;;10.90;99.90;;;;;;4902035;29;20043;-92
2021/03/18 18:20:19;;;;;;;13.45;5.63;;;10.80;99.90;;;;;;4901400;29;20450;-90
2021/03/18 18:22:45;;;;;;;14.50;4.90;;;10.80;99.90;;;;;;4884350;29;20122;-92
2021/03/18 18:25:12;;;;;;;12.75;5.20;;;10.80;99.90;;;;;;4908306;29;20136;-92
2021/03/18 18:27:40;;;;;;;9.90;5.15;;;10.80;99.90;;;;;;4919723;29;20032;-92
2021/03/18 18:30:08;;;;;;;13.55;5.28;;;10.70;99.90;;;;;;4917364;29;20028;-91
2021/03/18 18:32:35;;;;;;;16.52;5.50;;;10.60;99.90;;;;;;4901188;29;20043;-94
2021/03/18 18:35:02;;;;;;;9.55;5.78;;;10.60;99.90;;;;;;4904635;29;20039;-92
2021/03/18 18:37:28;;;;;;;12.60;5.70;;;10.60;99.90;;;;;;4902384;29;20039;-94
2021/03/18 18:39:54;;;;;;;14.98;6.50;;;10.50;99.90;;;;;;4918209;29;20020;-92
2021/03/18 18:42:19;;;;;;;21.52;7.90;;;10.50;99.90;;;;;;4906055;29;20044;-94
2021/03/18 18:44:45;;;;;;;15.25;6.32;;;10.50;99.90;;;;;;4912074;29;20036;-93
2021/03/18 18:47:12;;;;;;;14.63;6.05;;;10.40;99.90;;;;;;4906507;29;20505;-92
2021/03/18 18:49:38;;;;;;;17.77;6.93;;;10.50;99.90;;;;;;4906902;29;20414;-93
2021/03/18 18:52:04;;;;;;;15.90;6.28;;;10.40;99.90;;;;;;4920938;29;20036;-94
2021/03/18 18:54:30;;;;;;;13.25;6.63;;;10.40;99.90;;;;;;4924948;29;20059;-93
2021/03/18 18:56:57;;;;;;;14.95;6.85;;;10.30;99.90;;;;;;4915227;29;20067;-95
2021/03/18 18:59:24;;;;;;;13.82;6.63;;;10.30;99.90;;;;;;4925130;29;20446;-96
2021/03/18 19:01:50;;;;;;;18.20;7.65;;;10.30;99.90;;;;;;4912044;29;20024;-95
2021/03/18 19:04:16;;;;;;;18.20;7.38;;;10.30;99.90;;;;;;4906997;29;20486;-93
2021/03/18 19:06:42;;;;;;;17.35;7.93;;;10.20;99.90;;;;;;4902517;29;20028;-93
2021/03/18 19:09:08;;;;;;;14.88;7.63;;;10.30;99.90;;;;;;4905940;29;20043;-94
2021/03/18 19:11:34;;;;;;;13.38;7.70;;;10.30;99.90;;;;;;4914066;29;20020;-94
2021/03/18 19:14:02;;;;;;;13.20;7.40;;;10.30;99.90;;;;;;4912853;29;20028;-93
2021/03/18 19:16:29;;;;;;;11.98;7.22;;;10.30;99.90;;;;;;4926398;29;20040;-92
2021/03/18 19:18:55;;;;;;;16.33;7.80;;;10.30;99.90;;;;;;4932628;29;20039;-93
2021/03/18 19:21:20;;;;;;;14.18;6.97;;;10.30;99.90;;;;;;4917870;29;20040;-95
2021/03/18 19:23:46;;;;;;;13.15;7.93;;;10.20;99.90;;;;;;4933648;29;20024;-93
2021/03/18 19:26:12;;;;;;;15.43;7.72;;;10.20;99.90;;;;;;4934506;29;20032;-94
2021/03/18 19:28:39;;;;;;;16.17;9.02;;;10.20;99.90;;;;;;4922094;29;20044;-93
2021/03/18 19:31:05;;;;;;;15.32;9.02;;;10.20;99.90;;;;;;4938164;29;20024;-95
2021/03/18 19:33:37;;;;;;;24.10;9.60;;;10.20;99.90;;;;;;4922429;29;20038;-93
2021/03/18 19:36:03;;;;;;;15.45;8.15;;;10.20;99.90;;;;;;4940377;29;20020;-93
2021/03/18 19:38:28;;;;;;;15.07;9.30;;;10.10;99.90;;;;;;4939850;29;20044;-94
2021/03/18 19:41:00;;;;;;;17.80;9.82;;;10.10;99.90;;;;;;4940727;29;20028;-92
2021/03/18 19:43:25;;;;;;;19.65;10.45;;;10.10;99.90;;;;;;4922212;29;20043;-93
2021/03/18 19:45:52;;;;;;;17.08;10.32;;;10.00;99.90;;;;;;4918326;29;20028;-94
2021/03/18 19:48:20;;;;;;;18.38;11.77;;;10.00;99.90;;;;;;4919694;29;20056;-91
2021/03/18 19:50:54;;;;;;;20.73;10.43;;;10.00;99.90;;;;;;4939480;29;20016;-95
2021/03/18 19:53:22;;;;;;;24.17;11.23;;;10.00;99.90;;;;;;4923043;29;20024;-95
2021/03/18 19:55:51;;;;;;;21.13;10.02;;;10.00;99.90;;;;;;4936815;29;20052;-95
2021/03/18 19:58:17;;;;;;;15.68;10.30;;;10.00;99.90;;;;;;4941420;29;20032;-95
2021/03/18 20:00:45;;;;;;;18.52;12.23;;;9.90;99.90;;;;;;4939584;29;20009;-94
2021/03/18 20:03:11;;;;;;;20.80;10.82;;;9.90;99.90;;;;;;4939912;29;20052;-93
2021/03/18 20:05:38;;;;;;;20.27;11.48;;;9.90;99.90;;;;;;4923424;29;20044;-94
2021/03/18 20:08:05;;;;;;;17.85;12.40;;;9.90;99.90;;;;;;4939905;29;20016;-95
2021/03/18 20:10:40;;;;;;;23.15;12.63;;;9.90;99.90;;;;;;4940340;29;20024;-95